createdAt,value
2023-05-15T00:01:32.799Z,14.99
2023-05-15T00:05:34.733Z,15.02
2023-05-15T00:09:36.687Z,15.02
2023-05-15T00:13:38.614Z,14.79
2023-05-15T00:17:40.527Z,14.57
2023-05-15T00:21:42.606Z,14.47
2023-05-15T00:25:44.460Z,14.53
2023-05-15T00:29:46.259Z,14.56
2023-05-15T00:33:48.195Z,14.47
2023-05-15T00:37:50.120Z,14.43
2023-05-15T00:41:53.426Z,14.33
2023-05-15T00:45:55.615Z,14.18
2023-05-15T00:49:57.613Z,14.07
2023-05-15T00:53:59.592Z,14.02
2023-05-15T00:58:03.501Z,13.98
2023-05-15T01:02:05.621Z,13.89
2023-05-15T01:06:07.516Z,13.85
2023-05-15T01:10:10.701Z,13.78
2023-05-15T01:14:12.628Z,13.72
2023-05-15T01:18:15.930Z,13.66
2023-05-15T01:22:34.558Z,13.71
2023-05-15T01:27:00.093Z,13.71
2023-05-15T01:31:12.244Z,13.67
2023-05-15T01:35:17.916Z,13.68
2023-05-15T01:39:25.880Z,13.71
2023-05-15T01:43:30.781Z,13.74
2023-05-15T01:47:46.024Z,13.74
2023-05-15T01:51:53.806Z,13.78
2023-05-15T01:55:56.954Z,13.92
2023-05-15T01:59:59.397Z,14.06
2023-05-15T02:04:02.765Z,14.04
2023-05-15T02:08:05.018Z,13.92
2023-05-15T02:12:07.885Z,13.86
2023-05-15T02:16:09.881Z,13.84
2023-05-15T02:20:11.826Z,13.83
2023-05-15T02:24:13.700Z,13.82
2023-05-15T02:28:36.583Z,13.76
2023-05-15T02:32:56.145Z,13.75
2023-05-15T02:37:01.452Z,13.69
2023-05-15T02:41:05.711Z,13.60
2023-05-15T02:45:09.075Z,13.51
2023-05-15T02:49:11.761Z,13.46
2023-05-15T02:53:15.049Z,13.42
2023-05-15T02:57:16.899Z,13.35
2023-05-15T03:01:18.688Z,13.32
2023-05-15T03:05:20.770Z,13.26
2023-05-15T03:09:22.637Z,13.21
2023-05-15T03:13:24.410Z,13.22
2023-05-15T03:17:26.262Z,13.24
2023-05-15T03:21:28.041Z,13.26
2023-05-15T03:25:29.988Z,13.26
2023-05-15T03:29:31.903Z,13.28
2023-05-15T03:33:34.475Z,13.29
2023-05-15T03:37:36.404Z,13.34
2023-05-15T03:41:38.407Z,13.36
2023-05-15T03:45:40.112Z,13.30
2023-05-15T03:49:42.336Z,13.23
2023-05-15T03:53:44.122Z,13.17
2023-05-15T03:57:46.108Z,13.18
2023-05-15T04:02:02.978Z,13.18
2023-05-15T04:06:06.952Z,13.21
2023-05-15T04:10:08.898Z,13.24
2023-05-15T04:14:10.769Z,13.28
2023-05-15T04:18:12.520Z,13.35
2023-05-15T04:22:14.356Z,13.37
2023-05-15T04:26:16.150Z,13.30
2023-05-15T04:30:17.942Z,13.35
2023-05-15T04:34:20.019Z,13.41
2023-05-15T04:38:21.800Z,13.42
2023-05-15T04:42:23.566Z,13.47
2023-05-15T04:46:25.964Z,13.47
2023-05-15T04:50:27.888Z,13.48
2023-05-15T04:54:29.676Z,13.54
2023-05-15T04:58:31.585Z,13.63
2023-05-15T05:02:33.519Z,13.69
2023-05-15T05:06:35.793Z,13.72
2023-05-15T05:10:37.516Z,13.73
2023-05-15T05:14:41.480Z,13.76
2023-05-15T05:18:43.275Z,13.71
2023-05-15T05:22:44.912Z,13.72
2023-05-15T05:26:48.013Z,13.68
2023-05-15T05:30:49.853Z,13.71
2023-05-15T05:34:51.423Z,13.67
2023-05-15T05:38:53.008Z,13.70
2023-05-15T05:42:54.643Z,13.79
2023-05-15T05:46:56.429Z,13.81
2023-05-15T05:50:58.285Z,13.84
2023-05-15T05:54:59.914Z,13.79
2023-05-15T05:59:01.735Z,13.72
2023-05-15T06:03:03.519Z,13.63
2023-05-15T06:07:05.105Z,13.48
2023-05-15T06:11:06.647Z,13.41
2023-05-15T06:15:08.498Z,13.44
2023-05-15T06:19:10.366Z,13.50
2023-05-15T06:23:12.318Z,13.48
2023-05-15T06:27:14.301Z,13.37
2023-05-15T06:31:17.133Z,13.43
2023-05-15T06:35:19.048Z,13.52
2023-05-15T06:39:20.742Z,13.42
2023-05-15T06:43:22.397Z,13.55
2023-05-15T06:47:24.208Z,13.68
2023-05-15T06:51:26.407Z,13.72
2023-05-15T06:55:28.349Z,13.77
2023-05-15T06:59:33.854Z,13.76
2023-05-15T07:03:35.653Z,13.76
2023-05-15T07:07:37.633Z,13.86
2023-05-15T07:11:41.032Z,13.84
2023-05-15T07:15:42.758Z,13.95
2023-05-15T07:19:44.634Z,13.95
2023-05-15T07:23:46.531Z,13.91
2023-05-15T07:27:48.393Z,13.93
2023-05-15T07:31:50.404Z,13.93
2023-05-15T07:35:52.443Z,13.95
2023-05-15T07:39:55.699Z,13.94
2023-05-15T07:43:57.479Z,14.04
2023-05-15T07:47:59.478Z,14.18
2023-05-15T07:52:01.839Z,14.16
2023-05-15T07:56:03.835Z,14.16
2023-05-15T08:00:11.160Z,14.12
2023-05-15T08:04:13.115Z,14.16
2023-05-15T08:08:15.152Z,14.24
2023-05-15T08:12:23.559Z,14.29
2023-05-15T08:16:26.122Z,14.24
2023-05-15T08:21:24.480Z,14.34
2023-05-15T08:36:33.102Z,14.38
2023-05-15T08:40:39.437Z,14.44
2023-05-15T08:44:41.910Z,14.52
2023-05-15T08:48:43.690Z,14.63
2023-05-15T08:52:48.931Z,14.70
2023-05-15T08:56:50.499Z,14.59
2023-05-15T09:01:17.447Z,14.58
2023-05-15T09:05:18.956Z,14.72
2023-05-15T09:10:10.594Z,14.67
2023-05-15T09:14:14.186Z,14.86
2023-05-15T09:18:16.437Z,15.05
2023-05-15T09:22:23.544Z,15.27
2023-05-15T09:26:25.268Z,15.48
2023-05-15T09:30:27.318Z,15.48
2023-05-15T09:34:33.737Z,15.54
2023-05-15T09:38:41.129Z,15.64
2023-05-15T09:42:51.361Z,15.69
2023-05-15T09:46:52.984Z,15.74
2023-05-15T09:50:55.766Z,15.70
2023-05-15T09:54:57.477Z,15.66
2023-05-15T09:58:59.114Z,15.62
2023-05-15T10:03:04.793Z,15.58
2023-05-15T10:07:08.788Z,15.59
2023-05-15T10:11:10.541Z,15.64
2023-05-15T10:15:13.819Z,15.69
2023-05-15T10:19:15.286Z,15.69
2023-05-15T10:23:19.871Z,15.84
2023-05-15T10:27:22.703Z,16.02
2023-05-15T10:31:24.874Z,16.05
2023-05-15T10:35:27.389Z,16.04
2023-05-15T10:39:29.466Z,15.89
2023-05-15T10:44:05.853Z,15.87
2023-05-15T11:10:44.477Z,16.81
2023-05-15T11:15:02.625Z,16.94
2023-05-15T11:19:24.379Z,17.12
2023-05-15T11:23:25.805Z,17.15
2023-05-15T11:27:30.170Z,17.15
2023-05-15T11:31:31.710Z,17.20
2023-05-15T11:35:42.451Z,17.34
2023-05-15T11:39:44.015Z,17.49
2023-05-15T11:43:46.057Z,17.51
2023-05-15T11:47:47.584Z,17.45
2023-05-15T11:51:50.768Z,17.14
2023-05-15T11:55:53.798Z,16.62
2023-05-15T11:59:55.363Z,16.28
2023-05-15T12:03:57.169Z,15.85
2023-05-15T12:08:00.961Z,15.70
2023-05-15T12:12:13.079Z,15.59
2023-05-15T12:16:14.559Z,15.73
2023-05-15T12:20:18.008Z,15.94
2023-05-15T12:24:20.716Z,16.09
2023-05-15T12:28:22.347Z,16.39
2023-05-15T12:32:23.957Z,16.48
2023-05-15T12:36:29.019Z,16.52
2023-05-15T12:41:25.443Z,16.31
2023-05-15T12:45:26.886Z,16.02
2023-05-15T12:49:28.260Z,15.73
2023-05-15T12:53:31.894Z,15.53
2023-05-15T12:57:35.473Z,15.15
2023-05-15T13:01:37.125Z,14.93
2023-05-15T13:06:47.835Z,14.92
2023-05-15T13:10:56.675Z,14.82
2023-05-15T13:14:58.345Z,14.64
2023-05-15T13:19:02.489Z,14.60
2023-05-15T13:23:04.280Z,14.67
2023-05-15T13:27:05.690Z,14.51
2023-05-15T13:41:17.709Z,14.31
2023-05-15T13:45:19.220Z,14.24
2023-05-15T13:49:20.797Z,14.14
2023-05-15T13:53:52.185Z,14.16
2023-05-15T13:57:54.355Z,14.37
2023-05-15T14:01:55.708Z,14.61
2023-05-15T14:05:57.246Z,14.72
2023-05-15T14:09:59.070Z,14.95
2023-05-15T14:14:00.543Z,15.03
2023-05-15T14:18:02.042Z,14.87
2023-05-15T14:22:03.813Z,14.91
2023-05-15T14:26:32.471Z,15.01
2023-05-15T14:30:59.546Z,14.97
2023-05-15T14:36:08.979Z,15.00
2023-05-15T14:40:22.260Z,15.02
2023-05-15T15:02:46.215Z,15.60
2023-05-15T15:06:52.106Z,15.77
2023-05-15T15:10:57.842Z,15.81
2023-05-15T15:23:50.482Z,15.92
2023-05-15T15:27:52.281Z,16.10
2023-05-15T15:31:53.792Z,16.22
2023-05-15T15:35:55.582Z,16.33
2023-05-15T15:39:57.942Z,16.42
2023-05-15T15:44:00.761Z,16.62
2023-05-15T15:48:02.178Z,16.96
2023-05-15T15:52:09.924Z,17.33
2023-05-15T15:56:11.398Z,17.68
2023-05-15T16:00:15.345Z,17.87
2023-05-15T16:04:16.896Z,17.99
2023-05-15T16:08:18.394Z,18.17
2023-05-15T16:12:19.782Z,18.35
2023-05-15T16:16:22.001Z,18.33
2023-05-15T16:20:23.580Z,18.41
2023-05-15T16:24:25.712Z,18.28
2023-05-15T16:28:27.301Z,18.11
2023-05-15T16:32:28.738Z,17.84
2023-05-15T16:36:30.957Z,17.54
2023-05-15T16:40:32.363Z,17.28
2023-05-15T16:44:34.574Z,17.04
2023-05-15T16:48:36.210Z,16.91
2023-05-15T16:52:39.059Z,16.80
2023-05-15T16:56:40.719Z,16.75
2023-05-15T17:00:43.382Z,16.68
2023-05-15T17:04:44.723Z,16.66
2023-05-15T17:08:46.420Z,16.65
2023-05-15T17:12:47.810Z,16.57
2023-05-15T17:16:49.242Z,16.47
2023-05-15T17:20:50.904Z,16.48
2023-05-15T17:24:52.441Z,16.40
2023-05-15T17:33:21.895Z,16.24
2023-05-15T17:37:24.400Z,16.16
2023-05-15T17:41:27.421Z,16.04
2023-05-15T17:45:39.176Z,15.80
2023-05-15T17:49:40.621Z,15.71
2023-05-15T17:53:42.011Z,15.59
2023-05-15T17:57:43.435Z,15.48
2023-05-15T18:01:52.369Z,15.34
2023-05-15T18:05:53.864Z,15.17
2023-05-15T18:09:56.873Z,15.02
2023-05-15T18:13:58.258Z,14.83
2023-05-15T18:17:59.875Z,14.73
2023-05-15T18:22:02.653Z,14.68
2023-05-15T18:26:04.127Z,14.68
2023-05-15T18:30:11.846Z,14.68
2023-05-15T18:34:13.258Z,14.56
2023-05-15T18:38:14.690Z,14.20
2023-05-15T18:42:45.427Z,14.13
2023-05-15T18:46:46.891Z,14.16
2023-05-15T18:50:48.499Z,14.16
2023-05-15T18:54:51.516Z,14.02
2023-05-15T18:58:53.854Z,13.91
2023-05-15T19:02:55.526Z,13.82
2023-05-15T19:06:57.279Z,13.82
2023-05-15T19:11:01.188Z,13.79
2023-05-15T19:15:03.285Z,13.78
2023-05-15T19:19:04.728Z,13.79
2023-05-15T19:23:09.082Z,13.73
2023-05-15T19:27:10.897Z,13.70
2023-05-15T19:31:24.096Z,13.68
2023-05-15T19:35:29.138Z,13.68
2023-05-15T19:39:32.926Z,13.67
2023-05-15T19:43:35.766Z,13.64
2023-05-15T19:47:56.925Z,13.66
2023-05-15T19:51:58.322Z,13.66
2023-05-15T19:55:59.713Z,13.59
2023-05-15T20:00:01.446Z,13.49
2023-05-15T20:04:02.968Z,13.38
2023-05-15T20:08:05.056Z,13.27
2023-05-15T20:12:06.720Z,13.17
2023-05-15T20:16:10.489Z,13.08
2023-05-15T20:20:21.049Z,13.04
2023-05-15T20:24:25.171Z,13.00
2023-05-15T20:28:27.756Z,12.94
2023-05-15T20:32:31.407Z,12.86
2023-05-15T20:36:33.147Z,12.76
2023-05-15T20:40:34.679Z,12.67
2023-05-15T20:44:38.452Z,12.60
2023-05-15T20:48:39.912Z,12.56
2023-05-15T20:52:41.411Z,12.53
2023-05-15T20:56:42.801Z,12.51
2023-05-15T21:00:53.512Z,12.52
2023-05-15T21:04:55.089Z,12.49
2023-05-15T21:08:56.454Z,12.47
2023-05-15T21:12:59.462Z,12.46
2023-05-15T21:17:01.008Z,12.47
2023-05-15T21:21:06.370Z,12.45
2023-05-15T21:25:21.451Z,12.39
2023-05-15T21:29:22.933Z,12.38
2023-05-15T21:33:28.426Z,12.38
2023-05-15T21:37:30.037Z,12.38
2023-05-15T21:41:35.557Z,12.45
2023-05-15T21:45:36.953Z,12.47
2023-05-15T21:49:38.356Z,12.43
2023-05-15T21:53:44.711Z,12.35
2023-05-15T21:57:46.104Z,12.29
2023-05-15T22:01:47.856Z,12.28
2023-05-15T22:05:52.744Z,12.25
2023-05-15T22:09:54.191Z,12.22
2023-05-15T22:13:55.516Z,12.19
2023-05-15T22:17:58.587Z,12.18
2023-05-15T22:22:02.763Z,12.15
2023-05-15T22:26:04.174Z,12.10
2023-05-15T22:30:06.202Z,11.99
2023-05-15T22:34:07.627Z,11.96
2023-05-15T22:38:09.071Z,11.89
2023-05-15T22:42:10.509Z,11.82
2023-05-15T22:46:21.345Z,11.79
2023-05-15T22:50:22.747Z,11.74
2023-05-15T22:54:27.263Z,11.71
2023-05-15T22:58:28.671Z,11.76
2023-05-15T23:02:43.496Z,11.79
2023-05-15T23:06:46.272Z,11.78
2023-05-15T23:10:47.593Z,11.67
2023-05-15T23:14:48.986Z,11.66
2023-05-15T23:18:55.747Z,11.68
2023-05-15T23:22:57.100Z,11.69
2023-05-15T23:26:58.501Z,11.71
2023-05-15T23:31:30.127Z,11.75
2023-05-15T23:35:32.529Z,11.79
2023-05-15T23:39:59.401Z,11.81
2023-05-15T23:44:00.734Z,11.79
2023-05-15T23:48:02.114Z,11.79
2023-05-15T23:52:03.749Z,11.77
2023-05-15T23:56:05.678Z,11.74
